Latest Weather Observations for Bendigo

IDV60801

Issued at 3:02 am EDT Thursday 15 November 2018 (issued every 10 minutes, with the page automatically refreshed every 10 minutes)

About weather observations | Map of weather stations | Latest weather observations for VIC | Other Formats
Station Details ID: 081123 Name: BENDIGO AIRPORT Lat: -36.74 Lon: 144.33 Height: 209.17 m
Data from the previous 72 hours. | See also: Recent months at Bendigo
Date/Time
EDT
Temp
°C
App
Temp
°C
Dew
Point
°C
Rel
Hum
%
Delta-T
°C
Wind Press
QNH
hPa
Press
MSL
hPa
Rain since
9am
mm
Dir  Spd
km/h
Gust
km/h
Spd
kts
Gust
kts
15/03:00am 11.0 9.4 8.9 87 1.1 S 7 13 4 7 1018.5 1018.1 0.0
15/02:30am 11.3 9.8 9.2 87 1.1 S 7 9 4 5 1018.5 1018.1 0.0
15/02:00am 11.9 10.6 9.8 87 1.1 SSE 7 9 4 5 1018.7 1018.3 0.0
15/01:30am 12.6 10.5 9.8 83 1.4 SSE 11 17 6 9 1018.7 1018.3 0.0
15/01:00am 13.0 11.0 10.0 82 1.6 S 11 17 6 9 1018.6 1018.2 0.0
15/12:30am 13.3 11.3 10.3 82 1.6 S 11 15 6 8 1018.5 1018.1 0.0
15/12:00am 13.9 11.2 10.5 80 1.8 SSE 15 20 8 11 1018.5 1018.1 0.0
 
Date/Time
EDT
Temp
°C
App
Temp
°C
Dew
Point
°C
Rel
Hum
%
Delta-T
°C
Wind Press
QNH
hPa
Press
MSL
hPa
Rain since
9am
mm
Dir  Spd
km/h
Gust
km/h
Spd
kts
Gust
kts
14/11:30pm 14.4 11.3 10.4 77 2.1 SSE 17 24 9 13 1018.3 1017.9 0.0
14/11:00pm 14.9 11.5 10.5 75 2.3 SSE 19 30 10 16 1018.2 1017.8 0.0
14/10:30pm 15.4 12.7 10.2 71 2.8 SSE 15 20 8 11 1017.9 1017.5 0.0
14/10:00pm 16.8 13.5 9.7 63 3.7 SSE 17 26 9 14 1017.6 1017.2 0.0
14/09:30pm 17.8 14.9 8.1 53 5.0 SSW 13 19 7 10 1017.0 1016.5 0.0
14/09:00pm 18.6 14.9 8.0 50 5.5 SSW 17 24 9 13 1016.5 1016.1 0.0
14/08:30pm 18.9 16.7 8.0 49 5.7 S 9 15 5 8 1015.7 1015.3 0.0
14/08:00pm 20.0 17.2 8.4 47 6.1 SSW 13 22 7 12 1015.3 1014.9 0.0
14/07:30pm 20.7 16.7 8.4 45 6.5 S 19 28 10 15 1014.9 1014.5 0.0
14/07:00pm 21.5 17.8 10.0 48 6.3 S 20 28 11 15 1014.3 1013.9 0.0
14/06:30pm 22.5 17.9 10.9 48 6.5 SW 26 37 14 20 1013.7 1013.3 0.0
14/06:00pm 23.8 19.7 11.5 46 7.0 SSW 24 35 13 19 1013.3 1012.8 0.0
14/05:30pm 25.1 21.3 11.3 42 7.9 SW 22 35 12 19 1012.8 1012.3 0.0
14/05:00pm 25.6 21.2 7.2 31 9.8 W 20 30 11 16 1012.5 1012.0 0.0
14/04:30pm 26.1 21.3 7.2 30 10.1 W 22 37 12 20 1012.4 1011.9 0.0
14/04:00pm 27.6 23.7 9.4 32 10.2 WNW 20 35 11 19 1012.1 1011.6 0.0
14/03:30pm 25.5 21.3 9.7 37 8.8 WNW 22 35 12 19 1012.3 1011.8 0.0
14/03:00pm 26.8 22.4 10.5 36 9.2 NW 24 37 13 20 1012.5 1012.0 0.0
14/02:30pm 27.9 23.7 11.0 35 9.7 WNW 24 37 13 20 1012.6 1012.1 0.0
14/02:00pm 27.2 23.9 11.7 38 9.0 WNW 20 41 11 22 1012.7 1012.2 0.0
14/01:30pm 26.5 24.0 13.6 45 7.7 W 19 28 10 15 1012.8 1012.3 0.0
14/01:00pm 23.1 22.0 14.4 58 5.2 SW 13 17 7 9 1013.3 1012.8 0.0
14/12:30pm 23.3 23.1 14.6 58 5.2 NW 9 15 5 8 1013.5 1013.1 0.0
14/12:00pm 24.4 23.0 14.5 54 5.9 N 15 20 8 11 1013.8 1013.4 0.0
14/11:30am 23.0 22.3 15.3 62 4.6 NNW 13 20 7 11 1014.0 1013.6 0.0
14/11:00am 21.4 21.7 15.9 71 3.3 NNW 9 17 5 9 1014.3 1013.9 0.0
14/10:30am 20.5 20.4 16.1 76 2.7 NW 11 17 6 9 1014.4 1014.0 0.0
14/10:00am 19.7 20.4 16.0 79 2.2 NNW 7 11 4 6 1014.4 1014.0 0.0
14/09:34am 19.3 19.7 16.3 83 1.8 N 9 13 5 7 1014.2 1013.8 0.0
14/09:30am 19.3 19.9 16.7 85 1.6 N 9 13 5 7 1014.3 1013.9 0.0
14/09:00am 18.4 18.9 16.6 89 1.1 NW 9 13 5 7 1014.2 1013.8 0.6
14/08:30am 18.0 17.7 16.5 91 0.9 N 13 17 7 9 1014.1 1013.7 0.6
14/08:00am 18.0 18.6 16.9 93 0.7 N 9 11 5 6 1013.8 1013.4 0.6
14/07:30am 17.6 18.3 17.0 96 0.4 N 9 11 5 6 1013.7 1013.3 0.6
14/07:00am 17.1 17.6 16.6 97 0.3 N 9 11 5 6 1013.5 1013.1 0.6
14/06:30am 17.0 17.9 16.7 98 0.2 NNW 7 9 4 5 1013.3 1012.8 0.6
14/06:00am 16.9 17.8 16.6 98 0.2 N 7 9 4 5 1013.0 1012.5 0.6
14/05:30am 16.8 16.9 16.5 98 0.2 NNE 11 13 6 7 1012.8 1012.3 0.6
14/05:00am 16.8 16.9 16.5 98 0.2 NNE 11 15 6 8 1012.6 1012.1 0.6
14/04:33am 16.8 17.2 16.3 97 0.3 NNE 9 13 5 7 1012.7 1012.2 0.6
14/04:30am 16.7 17.1 16.2 97 0.3 NNE 9 13 5 7 1012.7 1012.2 0.6
14/04:03am 16.8 17.5 16.2 96 0.4 NE 7 9 4 5 1012.6 1012.1 0.6
14/04:00am 16.8 17.5 16.2 96 0.4 NNE 7 11 4 6 1012.6 1012.1 0.6
14/03:36am 16.9 17.6 16.1 95 0.5 N 7 9 4 5 1012.7 1012.2 0.4
14/03:30am 17.0 17.7 16.0 94 0.6 NNE 7 9 4 5 1012.8 1012.3 0.4
14/03:21am 17.1 17.8 16.1 94 0.6 NNW 7 11 4 6 1012.8 1012.3 0.4
14/03:00am 17.2 17.9 16.2 94 0.6 NW 7 11 4 6 1012.9 1012.4 0.2
14/02:43am 17.1 17.8 16.1 94 0.6 NW 7 11 4 6 1013.0 1012.5 0.2
14/02:30am 17.1 17.4 16.1 94 0.6 N 9 13 5 7 1012.9 1012.4 0.2
14/02:00am 17.1 17.4 16.0 93 0.7 NNE 9 11 5 6 1012.9 1012.4 0.2
14/01:30am 17.2 17.1 16.1 93 0.7 NNE 11 13 6 7 1013.2 1012.7 0.2
14/01:00am 17.4 17.0 16.1 92 0.8 N 13 17 7 9 1013.6 1013.2 0.2
14/12:30am 17.7 17.1 15.7 88 1.2 NNW 13 19 7 10 1013.6 1013.2 0.0
14/12:00am 18.6 17.6 15.5 82 1.8 NNW 15 22 8 12 1013.7 1013.3 0.0
 
Date/Time
EDT
Temp
°C
App
Temp
°C
Dew
Point
°C
Rel
Hum
%
Delta-T
°C
Wind Press
QNH
hPa
Press
MSL
hPa
Rain since
9am
mm
Dir  Spd
km/h
Gust
km/h
Spd
kts
Gust
kts
13/11:30pm 20.9 18.5 12.8 60 4.6 NW 17 28 9 15 1013.5 1013.1 0.0
13/11:00pm 22.3 18.1 9.8 45 6.8 WNW 22 33 12 18 1013.1 1012.6 0.0
13/10:30pm 23.3 18.5 9.0 40 7.8 WNW 24 33 13 18 1012.5 1012.0 0.0
13/10:00pm 23.1 18.0 10.5 45 7.0 W 28 43 15 23 1012.3 1011.8 0.0
13/09:32pm 24.0 16.6 8.4 37 8.4 W 37 65 20 35 1010.6 1010.2 0.0
13/09:30pm 24.2 17.1 8.2 36 8.6 W 35 52 19 28 1010.5 1010.1 0.0
13/09:23pm 24.5 16.6 8.0 35 8.8 WSW 39 57 21 31 1010.1 1009.7 0.0
13/09:15pm 24.8 19.6 7.4 33 9.2 W 24 57 13 31 1009.7 1009.3 0.0
13/09:00pm 24.5 20.6 9.6 39 8.2 NE 20 28 11 15 1009.0 1008.5 0.0
13/08:30pm 25.5 19.8 9.7 37 8.8 NNE 30 44 16 24 1009.2 1008.7 0.0
13/08:00pm 25.6 21.3 9.4 36 9.0 NE 22 32 12 17 1009.3 1008.8 0.0
13/07:30pm 26.6 21.1 9.0 33 9.7 NNE 28 37 15 20 1009.2 1008.7 0.0
13/07:00pm 27.4 21.3 8.3 30 10.5 NNE 30 46 16 25 1008.9 1008.4 0.0
13/06:30pm 28.5 23.3 7.1 26 11.5 NNE 24 35 13 19 1008.6 1008.1 0.0
13/06:00pm 28.5 22.0 6.6 25 11.7 NNE 30 44 16 24 1008.2 1007.7 0.0
13/05:30pm 29.0 22.2 5.1 22 12.5 N 30 46 16 25 1008.0 1007.5 0.0
13/05:28pm 29.1 23.1 5.2 22 12.5 N 26 46 14 25 1007.8 1007.3 0.0
13/05:00pm 29.5 25.0 4.2 20 13.1 NNE 17 28 9 15 1007.8 1007.3 0.0
13/04:30pm 30.2 25.3 6.8 23 12.7 NNE 22 33 12 18 1008.0 1007.5 0.0
13/04:00pm 30.9 25.7 5.3 20 13.6 NNE 22 41 12 22 1008.2 1007.7 0.0
13/03:30pm 31.9 26.5 6.2 20 13.9 NNE 24 37 13 20 1008.5 1008.0 0.0
13/03:00pm 30.2 24.5 6.8 23 12.7 NNE 26 37 14 20 1008.8 1008.3 0.0
13/02:30pm 29.8 23.7 6.5 23 12.5 NNE 28 46 15 25 1009.0 1008.5 0.0
13/02:25pm 30.0 23.8 6.0 22 12.8 NNE 28 46 15 25 1008.9 1008.4 0.0
13/02:00pm 31.0 24.8 6.1 21 13.4 NNE 28 39 15 21 1009.4 1009.0 0.0
13/01:30pm 30.1 25.3 7.3 24 12.4 NNE 22 33 12 18 1009.7 1009.3 0.0
13/01:00pm 28.5 24.0 7.1 26 11.6 NNE 20 35 11 19 1010.1 1009.7 0.0
13/12:30pm 27.8 22.9 7.1 27 11.1 NNE 22 30 12 16 1010.6 1010.2 0.0
13/12:00pm 27.6 23.9 8.0 29 10.7 NE 17 26 9 14 1010.8 1010.4 0.0
13/11:30am 26.1 23.4 7.2 30 10.1 ENE 11 17 6 9 1011.1 1010.7 0.0
13/11:00am 23.8 21.4 7.0 34 8.8 E 9 15 5 8 1011.6 1011.2 0.0
13/10:30am 22.3 19.8 6.5 36 8.1 ESE 9 15 5 8 1011.7 1011.3 0.0
13/10:00am 21.6 19.0 6.3 37 7.8 SSE 9 13 5 7 1012.3 1011.8 0.0
13/09:30am 21.0 18.3 5.8 37 7.7 ESE 9 13 5 7 1012.3 1011.8 0.0
13/09:00am 20.4 18.2 6.0 39 7.3 SSE 7 13 4 7 1012.3 1011.8 0.0
13/08:30am 19.6 16.1 5.6 40 7.0 SSE 13 15 7 8 1011.6 1011.2 0.0
13/08:00am 19.6 16.4 4.9 38 7.2 ESE 11 15 6 8 1011.5 1011.1 0.0
13/07:30am 19.3 15.7 5.0 39 7.0 SSE 13 17 7 9 1011.5 1011.1 0.0
13/07:00am 18.9 16.6 5.0 40 6.8 ESE 6 9 3 5 1011.9 1011.4 0.0
13/06:30am 19.0 16.1 4.7 39 7.0 SE 9 11 5 6 1011.7 1011.3 0.0
13/06:00am 18.8 15.9 4.6 39 6.9 SE 9 13 5 7 1011.4 1011.0 0.0
13/05:30am 18.1 14.8 4.7 41 6.5 SSE 11 15 6 8 1011.2 1010.8 0.0
13/05:00am 17.8 14.5 4.4 41 6.4 SE 11 13 6 7 1011.0 1010.6 0.0
13/04:30am 17.8 14.9 4.4 41 6.4 SE 9 11 5 6 1011.1 1010.7 0.0
13/04:00am 17.9 14.5 4.1 40 6.6 SSE 11 13 6 7 1011.1 1010.7 0.0
13/03:30am 17.7 14.3 3.9 40 6.5 SE 11 13 6 7 1011.2 1010.8 0.0
13/03:00am 17.8 14.8 4.0 40 6.6 SE 9 9 5 5 1011.3 1010.9 0.0
13/02:30am 17.1 13.6 3.4 40 6.4 SE 11 11 6 6 1011.7 1011.3 0.0
13/02:00am 19.3 16.6 3.5 35 7.5 ESE 7 9 4 5 1012.0 1011.5 0.0
13/01:30am 21.2 18.1 3.4 31 8.6 ENE 9 13 5 7 1012.4 1011.9 0.0
13/01:00am 21.7 18.5 2.9 29 9.0 ENE 9 15 5 8 1012.9 1012.4 0.0
13/12:30am 21.9 18.6 2.6 28 9.2 ENE 9 13 5 7 1013.2 1012.7 0.0
13/12:00am 21.9 18.2 2.1 27 9.4 ENE 11 17 6 9 1013.5 1013.1 0.0
 
Date/Time
EDT
Temp
°C
App
Temp
°C
Dew
Point
°C
Rel
Hum
%
Delta-T
°C
Wind Press
QNH
hPa
Press
MSL
hPa
Rain since
9am
mm
Dir  Spd
km/h
Gust
km/h
Spd
kts
Gust
kts
12/11:30pm 22.3 18.5 1.9 26 9.6 ENE 11 15 6 8 1013.6 1013.2 0.0
12/11:00pm 22.8 18.5 1.2 24 10.1 ENE 13 15 7 8 1014.0 1013.6 0.0
12/10:30pm 23.5 19.1 0.6 22 10.6 ENE 13 17 7 9 1014.2 1013.8 0.0
12/10:00pm 24.0 20.0 0.4 21 11.0 ENE 11 15 6 8 1014.1 1013.7 0.0
12/09:30pm 24.6 21.0 0.8 21 11.2 ENE 9 13 5 7 1014.1 1013.7 0.0
12/09:00pm 25.3 21.7 0.8 20 11.6 ENE 9 13 5 7 1014.1 1013.7 0.0
12/08:30pm 25.9 21.9 0.5 19 12.0 ENE 11 17 6 9 1014.1 1013.7 0.0
12/08:00pm 26.9 22.4 -0.2 17 12.7 NE 13 17 7 9 1013.9 1013.5 0.0
12/07:30pm 27.6 21.9 -0.5 16 13.2 NE 19 24 10 13 1013.9 1013.5 0.0
12/07:00pm 28.2 22.4 0.0 16 13.4 ENE 20 28 11 15 1013.9 1013.5 0.0
12/06:30pm 29.0 23.2 -1.2 14 14.2 NE 19 26 10 14 1013.8 1013.4 0.0
12/06:00pm 29.9 23.9 -1.5 13 14.7 NE 20 28 11 15 1014.0 1013.6 0.0
12/05:30pm 30.3 25.3 -1.2 13 14.9 NE 15 30 8 16 1014.2 1013.8 0.0
12/05:00pm 30.5 26.1 -2.1 12 15.2 NE 11 24 6 13 1014.3 1013.9 0.0
12/04:30pm 30.1 25.2 -3.6 11 15.3 ENE 13 28 7 15 1014.6 1014.2 0.0
12/04:00pm 29.7 25.6 -2.7 12 14.9 N 9 19 5 10 1015.0 1014.6 0.0
12/03:30pm 29.2 23.7 -2.0 13 14.4 ENE 17 22 9 12 1015.1 1014.7 0.0
12/03:00pm 28.5 24.3 -0.6 15 13.7 NE 11 22 6 12 1015.7 1015.3 0.0
12/02:30pm 28.6 24.6 0.3 16 13.6 N 11 20 6 11 1016.2 1015.8 0.0
12/02:00pm 28.0 24.4 0.7 17 13.1 NE 9 15 5 8 1016.6 1016.2 0.0
12/01:30pm 28.4 25.4 1.0 17 13.3 N 6 15 3 8 1017.1 1016.6 0.0
12/01:00pm 27.4 23.1 1.0 18 12.7 NW 13 20 7 11 1017.7 1017.3 0.0
12/12:30pm 27.6 23.6 2.6 20 12.4 N 13 19 7 10 1018.0 1017.6 0.0
12/12:00pm 26.4 21.9 2.3 21 11.8 NNE 15 24 8 13 1018.3 1017.9 0.0
12/11:30am 26.9 22.2 3.4 22 11.8 NNE 17 26 9 14 1018.5 1018.1 0.0
12/11:00am 25.2 21.6 4.9 27 10.3 NNE 13 20 7 11 1018.7 1018.3 0.0
12/10:30am 24.0 20.4 4.9 29 9.7 NE 13 19 7 10 1018.8 1018.4 0.0
12/10:00am 23.2 19.5 6.5 34 8.6 NE 15 19 8 10 1018.8 1018.4 0.0
12/09:30am 22.8 19.3 7.4 37 8.1 NE 15 19 8 10 1018.6 1018.2 0.0
12/09:00am 20.7 17.7 7.7 43 6.8 NE 13 20 7 11 1019.1 1018.7 0.0
12/08:30am 20.0 17.9 8.4 47 6.1 ENE 9 13 5 7 1019.1 1018.7 0.0
12/08:00am 18.6 16.1 8.0 50 5.5 ESE 11 20 6 11 1019.0 1018.6 0.0
12/07:30am 17.2 14.5 7.5 53 4.9 SE 11 13 6 7 1018.7 1018.3 0.0
12/07:00am 14.4 12.0 7.2 62 3.6 SE 9 13 5 7 1018.6 1018.2 0.0
12/06:30am 12.8 10.4 6.8 67 2.9 SE 9 11 5 6 1018.3 1017.9 0.0
12/06:00am 12.2 9.7 6.7 69 2.6 SE 9 11 5 6 1018.1 1017.7 0.0
12/05:30am 12.5 9.6 6.5 67 2.9 SE 11 13 6 7 1017.8 1017.4 0.0
12/05:00am 13.2 10.8 6.8 65 3.1 SSE 9 13 5 7 1017.9 1017.5 0.0
12/04:30am 12.9 10.1 7.1 68 2.8 SSE 11 15 6 8 1017.9 1017.5 0.0
12/04:00am 12.5 9.5 7.6 72 2.4 SSE 13 15 7 8 1017.8 1017.4 0.0
12/03:30am 12.7 9.6 7.4 70 2.6 SSE 13 15 7 8 1017.9 1017.5 0.0

Other Formats:

Comma delimited format used in spreadsheet applications
http://www.bom.gov.au/fwo/IDV60801/IDV60801.94855.axf

JavaScript Object Notation format (JSON) in row-major order
http://www.bom.gov.au/fwo/IDV60801/IDV60801.94855.json